AKDT,Max TemperatureF,Mean TemperatureF,Min TemperatureF,Max Dew PointF,MeanDew PointF,Min DewpointF,Max Humidity, Mean Humidity, Min Humidity, Max Sea Level PressureIn, Mean Sea Level PressureIn, Min Sea Level PressureIn, Max VisibilityMiles, Mean VisibilityMiles, Min VisibilityMiles, Max Wind SpeedMPH, Mean Wind SpeedMPH, Max Gust SpeedMPH,PrecipitationIn, CloudCover, Events, WindDirDegrees
2012-9-1,57,50,43,47,44,41,97,85,67,29.67,29.65,29.64,10,10,6,12,6,17,0.00,7,Rain,247
2012-9-2,55,50,45,48,46,44,96,83,70,29.67,29.54,29.37,10,10,3,26,13,37,0.31,7,Rain,87
2012-9-3,55,50,46,48,45,41,93,82,64,29.83,29.54,29.36,10,10,4,24,17,37,0.28,8,Rain,174
2012-9-4,53,46,39,49,42,36,96,81,68,29.87,29.66,29.42,10,9,4,32,15,48,0.35,7,Rain,122
2012-9-5,52,48,44,46,44,41,93,82,66,29.94,29.69,29.44,10,9,4,23,15,34,0.12,8,Rain,199
2012-9-6,52,48,44,43,41,39,93,80,66,30.18,30.12,29.98,10,10,4,20,12,28,0.00,7,Rain,210
2012-9-7,50,46,41,45,42,39,97,90,69,30.13,29.99,29.89,10,10,6,12,4,,0.16,8,Rain,81
2012-9-8,57,47,37,41,38,35,97,74,41,29.92,29.89,29.87,10,10,10,23,7,32,0.00,2,Rain,323
2012-9-9,55,48,41,37,36,35,76,62,39,29.96,29.95,29.93,10,10,10,18,13,29,0.00,1,,320
2012-9-10,55,46,36,43,37,33,93,74,43,29.94,29.87,29.81,10,10,10,9,5,,0.00,0,,42
2012-9-11,50,46,42,44,41,35,93,79,61,29.80,29.72,29.65,10,10,7,16,10,25,0.20,7,Rain,66
2012-9-12,54,49,44,48,44,42,96,88,76,29.82,29.71,29.65,10,10,6,9,4,,0.08,8,Rain,273
2012-9-13,59,50,42,45,42,40,90,77,42,29.88,29.85,29.82,10,10,10,9,6,18,0.00,6,Rain,248
2012-9-14,51,46,41,45,43,39,96,87,77,29.83,29.75,29.71,10,10,6,15,4,20,0.04,8,Rain,67
2012-9-15,51,48,44,48,46,43,93,85,77,29.72,29.59,29.33,10,9,6,28,13,40,0.43,8,Rain,88
2012-9-16,55,50,45,48,42,36,89,74,48,29.62,29.28,29.16,10,10,5,29,21,44,0.04,7,Rain,144
2012-9-17,53,47,42,45,39,36,83,73,45,29.88,29.78,29.64,10,10,10,22,15,37,0.03,6,Rain,148
2012-9-18,53,49,45,50,47,45,100,90,77,29.66,29.60,29.53,10,8,2,21,13,30,0.47,8,Rain,105
2012-9-19,53,50,48,52,49,46,100,93,86,29.66,29.44,29.31,10,7,1,21,10,32,0.47,8,Rain,121
2012-9-20,53,49,45,52,47,43,100,93,85,29.70,29.63,29.56,10,9,2,10,5,,0.08,8,Rain,295
2012-9-21,57,52,46,51,47,44,100,92,52,29.77,29.66,29.36,10,8,2,12,4,24,0.20,7,Rain,44
2012-9-22,55,52,48,51,49,46,97,85,70,29.34,29.27,29.20,10,10,6,23,13,34,0.16,6,Rain,95
2012-9-23,51,44,36,49,43,31,100,88,61,29.89,29.56,29.32,10,8,2,16,6,24,0.55,7,Rain,295
2012-9-24,48,40,33,40,35,29,89,77,65,29.90,29.81,29.62,10,10,10,25,10,34,0.00,4,,52
2012-9-25,55,46,37,40,39,37,77,61,41,29.59,29.26,29.04,10,10,10,29,19,40,0.00,7,,77
2012-9-26,52,48,44,42,38,34,89,67,42,29.21,29.02,28.77,10,10,8,29,18,44,0.04,5,Rain,35
2012-9-27,53,45,36,36,34,28,73,63,45,29.19,28.95,28.77,10,10,10,15,12,23,0.00,4,,340
2012-9-28,42,35,28,27,26,23,82,69,45,29.54,29.39,29.21,10,10,10,20,11,26,0.00,5,,298
2012-9-29,42,32,23,28,23,19,88,68,33,29.92,29.73,29.55,10,10,10,8,5,,0.00,2,,326
2012-9-30,46,36,28,28,26,23,88,69,36,30.13,30.05,29.95,10,10,10,8,5,,0.00,1,,328